Time;durP1;ratioP1;P1;durP2;ratioP2;P2;SDS_P1;SDS_P2;PMS_P1;PMS_P2;Temp;Humidity;BMP_temperature;BMP_pressure;BME280_temperature;BME280_humidity;BME280_pressure;Samples;Min_cycle;Max_cycle;Signal;HPM_P1;HPM_P2
2024/03/26 00:07:58;;;;;;;;;;;6.80;99.90;;;;;;21091870;28;19912;-78
2024/03/26 00:17:59;;;;;;;;;;;6.70;99.90;;;;;;21095023;28;20010;-77
2024/03/26 00:27:59;;;;;;;;;;;6.70;99.90;;;;;;21088578;28;19920;-78
2024/03/26 00:38:00;;;;;;;;;;;6.70;99.90;;;;;;21095753;28;19923;-78
2024/03/26 00:48:00;;;;;;;;;;;6.70;99.90;;;;;;21097949;28;19916;-78
2024/03/26 00:58:01;;;;;;;;;;;6.50;99.90;;;;;;21091703;28;19955;-77
2024/03/26 01:08:02;;;;;;;;;;;6.30;99.90;;;;;;21078108;28;20375;-78
2024/03/26 01:18:03;;;;;;;;;;;6.20;99.90;;;;;;21089814;28;20294;-78
2024/03/26 01:28:04;;;;;;;;;;;6.00;99.90;;;;;;21084490;28;19916;-77
2024/03/26 01:38:04;;;;;;;;;;;6.00;99.90;;;;;;21083910;28;20015;-77
2024/03/26 01:48:05;;;;;;;;;;;6.00;99.90;;;;;;21050296;28;20003;-78
2024/03/26 01:58:06;;;;;;;;;;;6.10;99.90;;;;;;21089157;28;19916;-77
2024/03/26 02:08:07;;;;;;;;;;;6.20;99.90;;;;;;21078294;28;19916;-78
2024/03/26 02:18:07;;;;;;;;;;;6.10;99.90;;;;;;21084393;28;19915;-77
2024/03/26 02:28:08;;;;;;;;;;;6.10;99.90;;;;;;21070391;28;19991;-77
2024/03/26 02:38:09;;;;;;;;;;;5.90;99.90;;;;;;21082946;28;19923;-77
2024/03/26 02:48:10;;;;;;;;;;;5.80;99.90;;;;;;21039876;28;19912;-78
2024/03/26 02:58:10;;;;;;;;;;;5.50;99.90;;;;;;21099496;28;19924;-78
2024/03/26 03:08:11;;;;;;;;;;;5.50;99.90;;;;;;21099599;28;19919;-78
2024/03/26 03:18:11;;;;;;;;;;;5.40;99.90;;;;;;21092984;28;20369;-77
2024/03/26 03:28:12;;;;;;;;;;;5.60;99.90;;;;;;21078939;28;19916;-78
2024/03/26 03:38:13;;;;;;;;;;;5.70;99.90;;;;;;21086264;28;20397;-77
2024/03/26 03:48:14;;;;;;;;;;;5.60;99.90;;;;;;21086323;28;20422;-77
2024/03/26 03:58:14;;;;;;;;;;;5.60;99.90;;;;;;21083748;28;19916;-77
2024/03/26 04:08:15;;;;;;;;;;;5.60;99.90;;;;;;21080882;28;20280;-78
2024/03/26 04:18:15;;;;;;;;;;;5.50;99.90;;;;;;21074306;28;19916;-77
2024/03/26 04:28:16;;;;;;;;;;;5.60;99.90;;;;;;21084688;28;19938;-77
2024/03/26 04:38:17;;;;;;;;;;;5.50;99.90;;;;;;21082476;28;19920;-77
2024/03/26 04:48:18;;;;;;;;;;;5.40;99.90;;;;;;21081620;28;19912;-76
2024/03/26 04:58:18;;;;;;;;;;;5.30;99.90;;;;;;21086961;28;19948;-78
2024/03/26 05:08:19;;;;;;;;;;;5.40;99.90;;;;;;21098910;28;19934;-78
2024/03/26 05:18:20;;;;;;;;;;;5.30;99.90;;;;;;21104566;28;19916;-78
2024/03/26 05:28:21;;;;;;;;;;;5.10;99.90;;;;;;21101209;28;19934;-78
2024/03/26 05:38:21;;;;;;;;;;;5.10;99.90;;;;;;21093675;28;19930;-77
2024/03/26 05:48:22;;;;;;;;;;;5.00;99.90;;;;;;21093088;28;19940;-78
2024/03/26 05:58:23;;;;;;;;;;;5.00;99.90;;;;;;21088155;28;20007;-77
2024/03/26 06:08:23;;;;;;;;;;;5.20;99.90;;;;;;21058569;28;19912;-77
2024/03/26 06:18:24;;;;;;;;;;;5.30;99.90;;;;;;21076704;28;19916;-76
2024/03/26 06:28:25;;;;;;;;;;;5.30;99.90;;;;;;21078685;28;19998;-77
2024/03/26 06:38:25;;;;;;;;;;;5.70;99.90;;;;;;21091413;28;20394;-78
2024/03/26 06:48:26;;;;;;;;;;;6.40;99.90;;;;;;21053708;28;19962;-78
2024/03/26 06:58:27;;;;;;;;;;;6.10;99.90;;;;;;21079120;28;19920;-76
2024/03/26 07:08:28;;;;;;;;;;;6.00;99.90;;;;;;21068812;28;20079;-77
2024/03/26 07:18:29;;;;;;;;;;;6.40;99.90;;;;;;21068522;28;19983;-77
2024/03/26 07:28:30;;;;;;;;;;;6.60;99.90;;;;;;21069250;28;19916;-77
2024/03/26 07:38:31;;;;;;;;;;;7.80;99.90;;;;;;21083413;28;20018;-77
2024/03/26 07:48:31;;;;;;;;;;;8.80;99.90;;;;;;21075411;28;19967;-77
2024/03/26 07:58:32;;;;;;;;;;;9.40;99.90;;;;;;21076972;28;20370;-78
2024/03/26 08:08:33;;;;;;;;;;;8.70;99.90;;;;;;21064220;28;19912;-77
2024/03/26 08:18:33;;;;;;;;;;;9.30;99.90;;;;;;21078511;28;19916;-77
2024/03/26 08:28:34;;;;;;;;;;;10.50;99.90;;;;;;21085408;28;20366;-77
2024/03/26 08:38:35;;;;;;;;;;;11.20;99.90;;;;;;21084347;28;20352;-77
2024/03/26 08:48:35;;;;;;;;;;;11.70;99.90;;;;;;21069890;28;19913;-77
2024/03/26 08:58:36;;;;;;;;;;;11.60;99.90;;;;;;21083385;28;19927;-78
2024/03/26 09:08:36;;;;;;;;;;;12.40;99.90;;;;;;21065191;28;20313;-77
2024/03/26 09:18:37;;;;;;;;;;;12.30;99.90;;;;;;21077860;28;19916;-77
2024/03/26 09:28:38;;;;;;;;;;;11.70;99.90;;;;;;21079927;28;19916;-77
2024/03/26 09:38:38;;;;;;;;;;;13.00;99.90;;;;;;21061313;28;19916;-76
2024/03/26 09:48:41;;;;;;;;;;;13.30;99.90;;;;;;21083520;28;19916;-78
2024/03/26 09:58:41;;;;;;;;;;;13.00;99.90;;;;;;21073560;28;19920;-79
2024/03/26 10:08:42;;;;;;;;;;;12.70;99.90;;;;;;21092518;28;19935;-79
2024/03/26 10:18:42;;;;;;;;;;;12.50;99.90;;;;;;21091678;28;19916;-77
2024/03/26 10:28:43;;;;;;;;;;;13.60;99.90;;;;;;21071694;28;19916;-79
2024/03/26 10:38:45;;;;;;;;;;;15.00;99.90;;;;;;21092246;28;19916;-79
2024/03/26 10:48:45;;;;;;;;;;;14.50;99.90;;;;;;21086917;28;19916;-78
2024/03/26 10:58:46;;;;;;;;;;;13.40;99.90;;;;;;21088591;28;19954;-78
2024/03/26 11:08:47;;;;;;;;;;;13.10;99.90;;;;;;21070308;28;19912;-78
2024/03/26 11:18:48;;;;;;;;;;;13.70;99.90;;;;;;21100758;28;19991;-78
2024/03/26 11:28:49;;;;;;;;;;;14.10;99.90;;;;;;21080121;28;19916;-77
2024/03/26 11:38:49;;;;;;;;;;;16.50;99.90;;;;;;21097238;28;19916;-78
2024/03/26 11:49:00;;;;;;;;;;;18.00;99.90;;;;;;21095272;28;19912;-77
2024/03/26 11:59:02;;;;;;;;;;;17.00;99.90;;;;;;21076538;28;19923;-77
2024/03/26 12:09:03;;;;;;;;;;;18.50;99.90;;;;;;21069751;28;20002;-77
2024/03/26 12:19:05;;;;;;;;;;;18.40;99.90;;;;;;21068074;28;19916;-76
2024/03/26 12:29:06;;;;;;;;;;;18.10;99.90;;;;;;21087431;28;19969;-77
2024/03/26 12:39:09;;;;;;;;;;;18.60;99.90;;;;;;21089148;28;20374;-78
2024/03/26 12:49:09;;;;;;;;;;;19.50;99.90;;;;;;21087965;28;19934;-77
2024/03/26 12:59:10;;;;;;;;;;;19.80;99.90;;;;;;21063938;28;19924;-77
2024/03/26 13:09:13;;;;;;;;;;;18.50;99.90;;;;;;21081114;28;19916;-76
2024/03/26 13:19:14;;;;;;;;;;;18.90;99.90;;;;;;21083152;28;20280;-77
2024/03/26 13:29:15;;;;;;;;;;;20.00;99.90;;;;;;21082675;28;19916;-77
2024/03/26 13:39:15;;;;;;;;;;;19.30;99.90;;;;;;21073328;28;19916;-77
2024/03/26 13:49:16;;;;;;;;;;;20.20;99.50;;;;;;21061145;28;19912;-77
2024/03/26 13:59:16;;;;;;;;;;;19.80;99.90;;;;;;21079918;28;19961;-77
2024/03/26 14:09:18;;;;;;;;;;;19.30;99.20;;;;;;21079570;28;20290;-77
2024/03/26 14:19:19;;;;;;;;;;;19.40;99.90;;;;;;21077149;28;19969;-77
2024/03/26 14:29:23;;;;;;;;;;;18.70;99.90;;;;;;21071550;28;20333;-77
2024/03/26 14:39:24;;;;;;;;;;;19.20;99.90;;;;;;21079803;28;19916;-77
2024/03/26 14:49:25;;;;;;;;;;;19.40;99.90;;;;;;21082069;28;19912;-78
2024/03/26 14:59:25;;;;;;;;;;;19.40;99.90;;;;;;21076457;28;19920;-77
2024/03/26 15:09:26;;;;;;;;;;;19.60;99.90;;;;;;21048819;28;19958;-77
2024/03/26 15:19:27;;;;;;;;;;;19.50;99.20;;;;;;21080495;28;20050;-77
2024/03/26 15:39:47;;;;;;;;;;;19.80;98.80;;;;;;21078563;28;20015;-78
2024/03/26 15:49:48;;;;;;;;;;;19.20;99.20;;;;;;21037027;28;19913;-77
2024/03/26 15:59:48;;;;;;;;;;;19.50;99.20;;;;;;21053259;28;19916;-77
2024/03/26 16:09:50;;;;;;;;;;;18.00;99.90;;;;;;21095793;28;19995;-78
2024/03/26 16:19:52;;;;;;;;;;;17.40;99.90;;;;;;21093378;28;19916;-77
2024/03/26 16:29:53;;;;;;;;;;;16.70;99.90;;;;;;21092298;28;19923;-77
2024/03/26 16:39:54;;;;;;;;;;;16.30;99.90;;;;;;21088913;28;19999;-78
2024/03/26 16:49:55;;;;;;;;;;;16.00;99.90;;;;;;21063496;28;20448;-80
2024/03/26 16:59:55;;;;;;;;;;;15.60;99.90;;;;;;21034768;28;20062;-81
2024/03/26 17:09:56;;;;;;;;;;;15.50;99.90;;;;;;21041831;28;20280;-78
2024/03/26 17:19:57;;;;;;;;;;;15.40;99.90;;;;;;21033896;28;19922;-78
2024/03/26 17:29:58;;;;;;;;;;;15.00;99.90;;;;;;21035282;28;19975;-79
2024/03/26 17:39:58;;;;;;;;;;;14.60;99.90;;;;;;21038818;28;20374;-77
2024/03/26 17:49:59;;;;;;;;;;;14.20;99.90;;;;;;21077145;28;19926;-76
2024/03/26 17:59:59;;;;;;;;;;;13.90;99.90;;;;;;21085917;28;20334;-77
2024/03/26 18:10:00;;;;;;;;;;;13.60;99.90;;;;;;21058257;28;19962;-78
2024/03/26 18:20:01;;;;;;;;;;;13.70;99.90;;;;;;21064830;28;20386;-79
2024/03/26 18:30:02;;;;;;;;;;;13.40;99.90;;;;;;21060090;28;20386;-79
2024/03/26 18:40:05;;;;;;;;;;;13.20;99.90;;;;;;21038823;28;20217;-77
2024/03/26 18:50:07;;;;;;;;;;;13.40;99.90;;;;;;21029642;28;19919;-78
2024/03/26 19:00:09;;;;;;;;;;;13.00;99.90;;;;;;21029857;28;19971;-77
2024/03/26 19:10:10;;;;;;;;;;;13.00;99.90;;;;;;21065766;28;19919;-78
2024/03/26 19:20:10;;;;;;;;;;;12.90;99.90;;;;;;21061080;28;19916;-78
2024/03/26 19:30:13;;;;;;;;;;;13.00;99.90;;;;;;21048250;28;19924;-77
2024/03/26 19:40:14;;;;;;;;;;;13.00;99.90;;;;;;21021494;28;19917;-76
2024/03/26 19:50:15;;;;;;;;;;;12.90;99.90;;;;;;21021462;28;19912;-77
2024/03/26 20:00:16;;;;;;;;;;;12.70;99.90;;;;;;21039986;28;20405;-78
2024/03/26 20:10:17;;;;;;;;;;;12.50;99.90;;;;;;21028569;28;19912;-78
2024/03/26 20:20:17;;;;;;;;;;;12.70;99.90;;;;;;21020339;28;20413;-77
2024/03/26 20:30:18;;;;;;;;;;;12.40;99.90;;;;;;21009835;28;19916;-77
2024/03/26 20:40:19;;;;;;;;;;;12.10;99.90;;;;;;21015160;28;19970;-77
2024/03/26 20:50:19;;;;;;;;;;;12.10;99.90;;;;;;21014906;28;19913;-77
2024/03/26 21:00:20;;;;;;;;;;;11.80;99.90;;;;;;21036135;28;19922;-78
2024/03/26 21:10:21;;;;;;;;;;;11.50;99.90;;;;;;21061248;28;20370;-76
2024/03/26 21:20:25;;;;;;;;;;;11.30;99.90;;;;;;21051530;28;19939;-78
2024/03/26 21:30:25;;;;;;;;;;;11.30;99.90;;;;;;21057041;28;19923;-77
2024/03/26 21:40:26;;;;;;;;;;;11.30;99.90;;;;;;21058663;28;19916;-77
2024/03/26 21:50:27;;;;;;;;;;;11.00;99.90;;;;;;21067434;28;19912;-77
2024/03/26 22:00:27;;;;;;;;;;;10.90;99.90;;;;;;21070406;28;19916;-77
2024/03/26 22:10:31;;;;;;;;;;;10.90;99.90;;;;;;21055879;28;20559;-77
2024/03/26 22:20:32;;;;;;;;;;;10.20;99.90;;;;;;21071481;28;20014;-77
2024/03/26 22:30:35;;;;;;;;;;;9.90;99.90;;;;;;21063184;28;20007;-77
2024/03/26 22:40:36;;;;;;;;;;;10.10;99.90;;;;;;21070261;28;19969;-76
2024/03/26 22:50:38;;;;;;;;;;;9.90;99.90;;;;;;21055669;28;19955;-77
2024/03/26 23:00:42;;;;;;;;;;;9.20;99.90;;;;;;21063515;28;20293;-78
2024/03/26 23:10:43;;;;;;;;;;;9.20;99.90;;;;;;21057078;28;20363;-77
2024/03/26 23:20:43;;;;;;;;;;;9.00;99.90;;;;;;21080019;28;19916;-78
2024/03/26 23:30:44;;;;;;;;;;;9.30;99.90;;;;;;21075687;28;19916;-78
2024/03/26 23:40:48;;;;;;;;;;;9.20;99.90;;;;;;21074100;28;19947;-77
2024/03/26 23:50:48;;;;;;;;;;;9.20;99.90;;;;;;21054496;28;19919;-77
